sensor_id;sensor_type;location;lat;lon;timestamp;P1;durP1;ratioP1;P2;durP2;ratioP2
31652;SDS011;18261;53.648;9.910;2022-10-24T00:01:50;8.30;;;2.75;;
31652;SDS011;18261;53.648;9.910;2022-10-24T00:04:15;7.63;;;2.58;;
31652;SDS011;18261;53.648;9.910;2022-10-24T00:06:41;11.75;;;2.80;;
31652;SDS011;18261;53.648;9.910;2022-10-24T00:09:07;9.55;;;2.65;;
31652;SDS011;18261;53.648;9.910;2022-10-24T00:11:33;7.35;;;2.42;;
31652;SDS011;18261;53.648;9.910;2022-10-24T00:13:59;14.50;;;3.05;;
31652;SDS011;18261;53.648;9.910;2022-10-24T00:16:26;12.52;;;2.50;;
31652;SDS011;18261;53.648;9.910;2022-10-24T00:18:52;9.25;;;2.83;;
31652;SDS011;18261;53.648;9.910;2022-10-24T00:21:18;14.18;;;3.08;;
31652;SDS011;18261;53.648;9.910;2022-10-24T00:23:44;12.23;;;2.72;;
31652;SDS011;18261;53.648;9.910;2022-10-24T00:26:10;4.75;;;2.70;;
31652;SDS011;18261;53.648;9.910;2022-10-24T00:28:37;10.25;;;2.70;;
31652;SDS011;18261;53.648;9.910;2022-10-24T00:31:04;11.00;;;3.10;;
31652;SDS011;18261;53.648;9.910;2022-10-24T00:33:30;13.82;;;2.70;;
31652;SDS011;18261;53.648;9.910;2022-10-24T00:35:56;9.70;;;2.58;;
31652;SDS011;18261;53.648;9.910;2022-10-24T00:38:22;6.55;;;2.78;;
31652;SDS011;18261;53.648;9.910;2022-10-24T00:40:48;15.07;;;2.80;;
31652;SDS011;18261;53.648;9.910;2022-10-24T00:43:15;10.35;;;2.85;;
31652;SDS011;18261;53.648;9.910;2022-10-24T00:45:45;10.70;;;3.03;;
31652;SDS011;18261;53.648;9.910;2022-10-24T00:50:46;10.70;;;2.85;;
31652;SDS011;18261;53.648;9.910;2022-10-24T00:53:13;13.27;;;2.80;;
31652;SDS011;18261;53.648;9.910;2022-10-24T00:55:39;8.73;;;2.55;;
31652;SDS011;18261;53.648;9.910;2022-10-24T00:58:05;6.68;;;2.30;;
31652;SDS011;18261;53.648;9.910;2022-10-24T01:00:33;11.88;;;2.70;;
31652;SDS011;18261;53.648;9.910;2022-10-24T01:02:59;11.30;;;2.65;;
31652;SDS011;18261;53.648;9.910;2022-10-24T01:05:26;12.05;;;3.22;;
31652;SDS011;18261;53.648;9.910;2022-10-24T01:07:57;14.00;;;3.13;;
31652;SDS011;18261;53.648;9.910;2022-10-24T01:10:31;8.52;;;3.00;;
31652;SDS011;18261;53.648;9.910;2022-10-24T01:15:49;11.75;;;2.55;;
31652;SDS011;18261;53.648;9.910;2022-10-24T01:18:22;8.70;;;2.55;;
31652;SDS011;18261;53.648;9.910;2022-10-24T01:28:37;11.52;;;2.83;;
31652;SDS011;18261;53.648;9.910;2022-10-24T01:31:07;8.35;;;2.50;;
31652;SDS011;18261;53.648;9.910;2022-10-24T01:33:35;12.65;;;3.25;;
31652;SDS011;18261;53.648;9.910;2022-10-24T01:38:38;7.00;;;3.10;;
31652;SDS011;18261;53.648;9.910;2022-10-24T01:41:16;9.35;;;3.25;;
31652;SDS011;18261;53.648;9.910;2022-10-24T01:43:47;11.02;;;2.90;;
31652;SDS011;18261;53.648;9.910;2022-10-24T01:46:35;8.93;;;3.75;;
31652;SDS011;18261;53.648;9.910;2022-10-24T01:49:06;7.30;;;2.70;;
31652;SDS011;18261;53.648;9.910;2022-10-24T01:51:34;11.40;;;3.53;;
31652;SDS011;18261;53.648;9.910;2022-10-24T01:54:01;11.45;;;2.97;;
31652;SDS011;18261;53.648;9.910;2022-10-24T01:56:28;11.23;;;3.08;;
31652;SDS011;18261;53.648;9.910;2022-10-24T01:59:55;10.32;;;3.13;;
31652;SDS011;18261;53.648;9.910;2022-10-24T02:04:15;13.00;;;3.30;;
31652;SDS011;18261;53.648;9.910;2022-10-24T02:06:41;10.25;;;2.80;;
31652;SDS011;18261;53.648;9.910;2022-10-24T02:09:12;7.10;;;3.17;;
31652;SDS011;18261;53.648;9.910;2022-10-24T02:11:39;12.52;;;3.60;;
31652;SDS011;18261;53.648;9.910;2022-10-24T02:14:13;7.65;;;3.03;;
31652;SDS011;18261;53.648;9.910;2022-10-24T02:16:41;10.27;;;3.72;;
31652;SDS011;18261;53.648;9.910;2022-10-24T02:19:08;6.60;;;3.10;;
31652;SDS011;18261;53.648;9.910;2022-10-24T02:21:36;10.90;;;3.47;;
31652;SDS011;18261;53.648;9.910;2022-10-24T02:24:08;12.75;;;3.30;;
31652;SDS011;18261;53.648;9.910;2022-10-24T02:26:38;9.30;;;3.17;;
31652;SDS011;18261;53.648;9.910;2022-10-24T02:29:10;11.85;;;3.50;;
31652;SDS011;18261;53.648;9.910;2022-10-24T02:31:38;14.82;;;3.15;;
31652;SDS011;18261;53.648;9.910;2022-10-24T02:34:05;11.30;;;3.33;;
31652;SDS011;18261;53.648;9.910;2022-10-24T02:36:32;11.38;;;2.92;;
31652;SDS011;18261;53.648;9.910;2022-10-24T02:38:59;15.98;;;2.92;;
31652;SDS011;18261;53.648;9.910;2022-10-24T02:41:28;11.35;;;3.10;;
31652;SDS011;18261;53.648;9.910;2022-10-24T02:43:54;15.32;;;3.28;;
31652;SDS011;18261;53.648;9.910;2022-10-24T02:46:21;11.43;;;3.40;;
31652;SDS011;18261;53.648;9.910;2022-10-24T02:48:49;10.35;;;3.17;;
31652;SDS011;18261;53.648;9.910;2022-10-24T02:51:16;8.93;;;3.38;;
31652;SDS011;18261;53.648;9.910;2022-10-24T02:53:42;16.08;;;3.85;;
31652;SDS011;18261;53.648;9.910;2022-10-24T02:56:08;6.90;;;3.03;;
31652;SDS011;18261;53.648;9.910;2022-10-24T02:58:34;10.23;;;3.40;;
31652;SDS011;18261;53.648;9.910;2022-10-24T03:01:00;18.25;;;3.80;;
31652;SDS011;18261;53.648;9.910;2022-10-24T03:03:26;14.93;;;3.40;;
31652;SDS011;18261;53.648;9.910;2022-10-24T03:05:52;12.50;;;3.38;;
31652;SDS011;18261;53.648;9.910;2022-10-24T03:08:18;9.73;;;3.25;;
31652;SDS011;18261;53.648;9.910;2022-10-24T03:10:44;16.83;;;3.25;;
31652;SDS011;18261;53.648;9.910;2022-10-24T03:13:10;6.00;;;2.90;;
31652;SDS011;18261;53.648;9.910;2022-10-24T03:15:36;13.25;;;3.30;;
31652;SDS011;18261;53.648;9.910;2022-10-24T03:18:02;9.85;;;3.90;;
31652;SDS011;18261;53.648;9.910;2022-10-24T03:20:28;11.93;;;3.90;;
31652;SDS011;18261;53.648;9.910;2022-10-24T03:22:54;17.73;;;3.72;;
31652;SDS011;18261;53.648;9.910;2022-10-24T03:25:19;18.73;;;4.13;;
31652;SDS011;18261;53.648;9.910;2022-10-24T03:27:45;13.05;;;3.58;;
31652;SDS011;18261;53.648;9.910;2022-10-24T03:30:11;7.53;;;3.13;;
31652;SDS011;18261;53.648;9.910;2022-10-24T03:32:37;8.82;;;3.35;;
31652;SDS011;18261;53.648;9.910;2022-10-24T03:35:03;8.68;;;3.50;;
31652;SDS011;18261;53.648;9.910;2022-10-24T03:37:30;14.18;;;3.67;;
31652;SDS011;18261;53.648;9.910;2022-10-24T03:39:56;11.30;;;3.40;;
31652;SDS011;18261;53.648;9.910;2022-10-24T03:42:22;15.63;;;4.35;;
31652;SDS011;18261;53.648;9.910;2022-10-24T03:44:48;14.02;;;3.90;;
31652;SDS011;18261;53.648;9.910;2022-10-24T03:47:14;9.77;;;3.88;;
31652;SDS011;18261;53.648;9.910;2022-10-24T03:49:40;8.00;;;3.58;;
31652;SDS011;18261;53.648;9.910;2022-10-24T03:52:06;12.45;;;3.55;;
31652;SDS011;18261;53.648;9.910;2022-10-24T03:54:32;17.10;;;4.05;;
31652;SDS011;18261;53.648;9.910;2022-10-24T03:56:58;12.05;;;3.83;;
31652;SDS011;18261;53.648;9.910;2022-10-24T03:59:24;18.55;;;4.13;;
31652;SDS011;18261;53.648;9.910;2022-10-24T04:01:50;18.80;;;4.97;;
31652;SDS011;18261;53.648;9.910;2022-10-24T04:04:16;17.80;;;5.63;;
31652;SDS011;18261;53.648;9.910;2022-10-24T04:06:42;18.10;;;5.38;;
31652;SDS011;18261;53.648;9.910;2022-10-24T04:09:08;13.70;;;4.40;;
31652;SDS011;18261;53.648;9.910;2022-10-24T04:11:34;9.63;;;4.65;;
31652;SDS011;18261;53.648;9.910;2022-10-24T04:14:00;9.57;;;3.97;;
31652;SDS011;18261;53.648;9.910;2022-10-24T04:16:26;12.55;;;3.60;;
31652;SDS011;18261;53.648;9.910;2022-10-24T04:18:52;18.90;;;4.97;;
31652;SDS011;18261;53.648;9.910;2022-10-24T04:21:18;17.10;;;4.07;;
31652;SDS011;18261;53.648;9.910;2022-10-24T04:23:44;12.30;;;4.20;;
31652;SDS011;18261;53.648;9.910;2022-10-24T04:26:12;14.68;;;3.80;;
31652;SDS011;18261;53.648;9.910;2022-10-24T04:28:38;21.10;;;4.22;;
31652;SDS011;18261;53.648;9.910;2022-10-24T04:31:05;12.93;;;4.32;;
31652;SDS011;18261;53.648;9.910;2022-10-24T04:33:31;10.43;;;3.95;;
31652;SDS011;18261;53.648;9.910;2022-10-24T04:35:57;9.38;;;3.65;;
31652;SDS011;18261;53.648;9.910;2022-10-24T04:38:24;17.73;;;4.03;;
31652;SDS011;18261;53.648;9.910;2022-10-24T04:40:51;14.00;;;4.15;;
31652;SDS011;18261;53.648;9.910;2022-10-24T04:43:17;15.40;;;4.50;;
31652;SDS011;18261;53.648;9.910;2022-10-24T04:45:43;13.27;;;4.32;;
31652;SDS011;18261;53.648;9.910;2022-10-24T04:48:09;16.25;;;4.55;;
31652;SDS011;18261;53.648;9.910;2022-10-24T04:50:35;22.73;;;4.40;;
31652;SDS011;18261;53.648;9.910;2022-10-24T04:53:02;14.70;;;4.20;;
31652;SDS011;18261;53.648;9.910;2022-10-24T04:55:28;20.95;;;4.35;;
31652;SDS011;18261;53.648;9.910;2022-10-24T04:57:54;11.65;;;4.32;;
31652;SDS011;18261;53.648;9.910;2022-10-24T05:00:20;12.75;;;3.80;;
31652;SDS011;18261;53.648;9.910;2022-10-24T05:02:46;11.15;;;4.28;;
31652;SDS011;18261;53.648;9.910;2022-10-24T05:05:12;13.93;;;4.20;;
31652;SDS011;18261;53.648;9.910;2022-10-24T05:07:38;12.45;;;5.10;;
31652;SDS011;18261;53.648;9.910;2022-10-24T05:10:04;18.10;;;4.57;;
31652;SDS011;18261;53.648;9.910;2022-10-24T05:12:30;10.50;;;3.92;;
31652;SDS011;18261;53.648;9.910;2022-10-24T05:14:56;18.20;;;6.57;;
31652;SDS011;18261;53.648;9.910;2022-10-24T05:17:22;13.45;;;4.22;;
31652;SDS011;18261;53.648;9.910;2022-10-24T05:19:48;9.55;;;3.90;;
31652;SDS011;18261;53.648;9.910;2022-10-24T05:22:14;10.73;;;4.32;;
31652;SDS011;18261;53.648;9.910;2022-10-24T05:24:40;15.27;;;4.60;;
31652;SDS011;18261;53.648;9.910;2022-10-24T05:27:06;16.33;;;4.70;;
31652;SDS011;18261;53.648;9.910;2022-10-24T05:29:32;13.88;;;4.18;;
31652;SDS011;18261;53.648;9.910;2022-10-24T05:31:58;25.67;;;5.05;;
31652;SDS011;18261;53.648;9.910;2022-10-24T05:34:24;25.70;;;4.82;;
31652;SDS011;18261;53.648;9.910;2022-10-24T05:36:50;15.77;;;4.28;;
31652;SDS011;18261;53.648;9.910;2022-10-24T05:39:16;13.80;;;4.25;;
31652;SDS011;18261;53.648;9.910;2022-10-24T05:41:42;14.70;;;4.50;;
31652;SDS011;18261;53.648;9.910;2022-10-24T05:44:10;19.05;;;4.13;;
31652;SDS011;18261;53.648;9.910;2022-10-24T05:46:36;15.40;;;4.03;;
31652;SDS011;18261;53.648;9.910;2022-10-24T05:49:02;17.45;;;4.05;;
31652;SDS011;18261;53.648;9.910;2022-10-24T05:51:28;18.27;;;3.70;;
31652;SDS011;18261;53.648;9.910;2022-10-24T05:53:54;16.27;;;3.53;;
31652;SDS011;18261;53.648;9.910;2022-10-24T05:56:20;25.27;;;4.20;;
31652;SDS011;18261;53.648;9.910;2022-10-24T05:58:46;13.93;;;3.50;;
31652;SDS011;18261;53.648;9.910;2022-10-24T06:01:12;17.58;;;3.83;;
31652;SDS011;18261;53.648;9.910;2022-10-24T06:03:38;19.88;;;4.20;;
31652;SDS011;18261;53.648;9.910;2022-10-24T06:06:05;15.88;;;4.70;;
31652;SDS011;18261;53.648;9.910;2022-10-24T06:08:32;21.13;;;3.72;;
31652;SDS011;18261;53.648;9.910;2022-10-24T06:10:58;33.90;;;3.92;;
31652;SDS011;18261;53.648;9.910;2022-10-24T06:13:24;11.82;;;3.63;;
31652;SDS011;18261;53.648;9.910;2022-10-24T06:15:50;12.38;;;3.83;;
31652;SDS011;18261;53.648;9.910;2022-10-24T06:18:16;13.55;;;3.72;;
31652;SDS011;18261;53.648;9.910;2022-10-24T06:20:42;15.93;;;3.90;;
31652;SDS011;18261;53.648;9.910;2022-10-24T06:23:08;13.52;;;3.47;;
31652;SDS011;18261;53.648;9.910;2022-10-24T06:25:34;12.25;;;3.90;;
31652;SDS011;18261;53.648;9.910;2022-10-24T06:28:00;16.17;;;4.05;;
31652;SDS011;18261;53.648;9.910;2022-10-24T06:30:26;7.97;;;3.85;;
31652;SDS011;18261;53.648;9.910;2022-10-24T06:32:52;21.20;;;4.25;;
31652;SDS011;18261;53.648;9.910;2022-10-24T06:35:18;15.68;;;3.72;;
31652;SDS011;18261;53.648;9.910;2022-10-24T06:37:44;15.00;;;4.10;;
31652;SDS011;18261;53.648;9.910;2022-10-24T06:40:10;22.58;;;3.97;;
31652;SDS011;18261;53.648;9.910;2022-10-24T06:42:37;20.98;;;3.70;;
31652;SDS011;18261;53.648;9.910;2022-10-24T06:45:03;15.48;;;4.35;;
31652;SDS011;18261;53.648;9.910;2022-10-24T06:47:30;18.40;;;4.43;;
31652;SDS011;18261;53.648;9.910;2022-10-24T06:49:56;14.70;;;3.65;;
31652;SDS011;18261;53.648;9.910;2022-10-24T06:52:21;15.98;;;4.30;;
31652;SDS011;18261;53.648;9.910;2022-10-24T06:54:47;16.92;;;4.05;;
31652;SDS011;18261;53.648;9.910;2022-10-24T06:57:13;11.20;;;4.55;;
31652;SDS011;18261;53.648;9.910;2022-10-24T06:59:39;21.15;;;5.00;;
31652;SDS011;18261;53.648;9.910;2022-10-24T07:02:05;10.93;;;4.38;;
31652;SDS011;18261;53.648;9.910;2022-10-24T07:04:31;16.98;;;4.72;;
31652;SDS011;18261;53.648;9.910;2022-10-24T07:06:57;23.65;;;5.00;;
31652;SDS011;18261;53.648;9.910;2022-10-24T07:09:23;17.27;;;4.45;;
31652;SDS011;18261;53.648;9.910;2022-10-24T07:11:49;16.75;;;5.60;;
31652;SDS011;18261;53.648;9.910;2022-10-24T07:14:15;28.27;;;6.00;;
31652;SDS011;18261;53.648;9.910;2022-10-24T07:16:41;13.48;;;4.50;;
31652;SDS011;18261;53.648;9.910;2022-10-24T07:19:07;24.92;;;8.50;;
31652;SDS011;18261;53.648;9.910;2022-10-24T07:21:33;20.08;;;5.22;;
31652;SDS011;18261;53.648;9.910;2022-10-24T07:23:59;15.93;;;4.93;;
31652;SDS011;18261;53.648;9.910;2022-10-24T07:26:26;20.50;;;4.72;;
31652;SDS011;18261;53.648;9.910;2022-10-24T07:28:52;18.08;;;3.83;;
31652;SDS011;18261;53.648;9.910;2022-10-24T07:31:20;14.88;;;3.97;;
31652;SDS011;18261;53.648;9.910;2022-10-24T07:33:46;15.10;;;3.97;;
31652;SDS011;18261;53.648;9.910;2022-10-24T07:36:16;18.60;;;3.83;;
31652;SDS011;18261;53.648;9.910;2022-10-24T07:38:42;15.50;;;3.30;;
31652;SDS011;18261;53.648;9.910;2022-10-24T07:41:08;14.95;;;3.83;;
31652;SDS011;18261;53.648;9.910;2022-10-24T07:43:34;10.23;;;3.55;;
31652;SDS011;18261;53.648;9.910;2022-10-24T07:46:04;16.90;;;3.30;;
31652;SDS011;18261;53.648;9.910;2022-10-24T07:48:30;24.27;;;3.60;;
31652;SDS011;18261;53.648;9.910;2022-10-24T07:50:56;14.32;;;2.97;;
31652;SDS011;18261;53.648;9.910;2022-10-24T07:53:21;14.20;;;3.65;;
31652;SDS011;18261;53.648;9.910;2022-10-24T07:55:49;12.60;;;3.67;;
31652;SDS011;18261;53.648;9.910;2022-10-24T07:58:15;10.32;;;3.38;;
31652;SDS011;18261;53.648;9.910;2022-10-24T08:00:41;10.85;;;3.30;;
31652;SDS011;18261;53.648;9.910;2022-10-24T08:03:07;13.93;;;3.00;;
31652;SDS011;18261;53.648;9.910;2022-10-24T08:05:33;12.38;;;2.88;;
31652;SDS011;18261;53.648;9.910;2022-10-24T08:07:59;14.52;;;3.60;;
31652;SDS011;18261;53.648;9.910;2022-10-24T08:10:25;16.27;;;7.30;;
31652;SDS011;18261;53.648;9.910;2022-10-24T08:12:51;25.20;;;3.28;;
31652;SDS011;18261;53.648;9.910;2022-10-24T08:15:17;11.10;;;2.60;;
31652;SDS011;18261;53.648;9.910;2022-10-24T08:17:43;13.50;;;3.17;;
31652;SDS011;18261;53.648;9.910;2022-10-24T08:20:09;16.00;;;3.38;;
31652;SDS011;18261;53.648;9.910;2022-10-24T08:22:35;17.85;;;4.60;;
31652;SDS011;18261;53.648;9.910;2022-10-24T08:25:02;21.80;;;3.08;;
31652;SDS011;18261;53.648;9.910;2022-10-24T08:27:29;7.75;;;2.47;;
31652;SDS011;18261;53.648;9.910;2022-10-24T08:29:55;10.80;;;2.80;;
31652;SDS011;18261;53.648;9.910;2022-10-24T08:32:22;15.93;;;3.03;;
31652;SDS011;18261;53.648;9.910;2022-10-24T08:34:47;12.25;;;3.05;;
31652;SDS011;18261;53.648;9.910;2022-10-24T08:37:13;11.90;;;2.50;;
31652;SDS011;18261;53.648;9.910;2022-10-24T08:39:39;17.48;;;3.10;;
31652;SDS011;18261;53.648;9.910;2022-10-24T08:42:06;19.35;;;3.13;;
31652;SDS011;18261;53.648;9.910;2022-10-24T08:44:36;12.13;;;2.80;;
31652;SDS011;18261;53.648;9.910;2022-10-24T08:52:27;16.15;;;4.60;;
31652;SDS011;18261;53.648;9.910;2022-10-24T08:54:56;19.20;;;5.20;;
31652;SDS011;18261;53.648;9.910;2022-10-24T08:57:24;16.15;;;3.83;;
31652;SDS011;18261;53.648;9.910;2022-10-24T08:59:51;16.30;;;3.30;;
31652;SDS011;18261;53.648;9.910;2022-10-24T09:02:23;14.90;;;3.95;;
31652;SDS011;18261;53.648;9.910;2022-10-24T09:04:54;15.88;;;2.72;;
31652;SDS011;18261;53.648;9.910;2022-10-24T09:07:21;16.50;;;3.33;;
31652;SDS011;18261;53.648;9.910;2022-10-24T09:09:48;9.35;;;2.58;;
31652;SDS011;18261;53.648;9.910;2022-10-24T09:12:16;12.02;;;3.00;;
31652;SDS011;18261;53.648;9.910;2022-10-24T09:14:43;15.27;;;2.47;;
31652;SDS011;18261;53.648;9.910;2022-10-24T09:17:13;9.05;;;2.40;;
31652;SDS011;18261;53.648;9.910;2022-10-24T09:19:43;16.25;;;2.88;;
31652;SDS011;18261;53.648;9.910;2022-10-24T09:22:11;11.98;;;2.63;;
31652;SDS011;18261;53.648;9.910;2022-10-24T09:24:41;13.02;;;3.08;;
31652;SDS011;18261;53.648;9.910;2022-10-24T09:27:26;15.23;;;2.67;;
31652;SDS011;18261;53.648;9.910;2022-10-24T09:29:53;19.20;;;3.35;;
31652;SDS011;18261;53.648;9.910;2022-10-24T09:32:20;13.77;;;2.85;;
31652;SDS011;18261;53.648;9.910;2022-10-24T09:34:47;14.63;;;2.78;;
31652;SDS011;18261;53.648;9.910;2022-10-24T09:37:29;13.30;;;3.50;;
31652;SDS011;18261;53.648;9.910;2022-10-24T09:42:34;11.20;;;2.90;;
31652;SDS011;18261;53.648;9.910;2022-10-24T09:45:04;14.27;;;3.00;;
31652;SDS011;18261;53.648;9.910;2022-10-24T09:47:41;12.10;;;3.13;;
31652;SDS011;18261;53.648;9.910;2022-10-24T09:50:17;12.35;;;3.40;;
31652;SDS011;18261;53.648;9.910;2022-10-24T09:52:45;17.02;;;2.85;;
31652;SDS011;18261;53.648;9.910;2022-10-24T09:55:17;11.40;;;2.58;;
31652;SDS011;18261;53.648;9.910;2022-10-24T09:57:44;13.27;;;2.38;;
31652;SDS011;18261;53.648;9.910;2022-10-24T10:00:21;18.92;;;3.05;;
31652;SDS011;18261;53.648;9.910;2022-10-24T10:02:58;12.93;;;2.30;;
31652;SDS011;18261;53.648;9.910;2022-10-24T10:05:26;18.67;;;2.97;;
31652;SDS011;18261;53.648;9.910;2022-10-24T10:07:52;16.83;;;5.65;;
31652;SDS011;18261;53.648;9.910;2022-10-24T10:10:23;12.93;;;4.70;;
31652;SDS011;18261;53.648;9.910;2022-10-24T10:12:57;16.40;;;5.88;;
31652;SDS011;18261;53.648;9.910;2022-10-24T10:17:51;15.88;;;2.92;;
31652;SDS011;18261;53.648;9.910;2022-10-24T10:25:48;16.27;;;2.30;;
31652;SDS011;18261;53.648;9.910;2022-10-24T10:28:18;11.07;;;2.80;;
31652;SDS011;18261;53.648;9.910;2022-10-24T10:30:48;15.18;;;2.40;;
31652;SDS011;18261;53.648;9.910;2022-10-24T10:33:18;12.25;;;2.80;;
31652;SDS011;18261;53.648;9.910;2022-10-24T10:40:57;14.27;;;2.20;;
31652;SDS011;18261;53.648;9.910;2022-10-24T10:43:31;11.02;;;2.47;;
31652;SDS011;18261;53.648;9.910;2022-10-24T10:46:06;11.85;;;2.20;;
31652;SDS011;18261;53.648;9.910;2022-10-24T10:51:09;18.50;;;2.80;;
31652;SDS011;18261;53.648;9.910;2022-10-24T10:56:28;13.40;;;2.70;;
31652;SDS011;18261;53.648;9.910;2022-10-24T11:04:10;14.48;;;2.95;;
31652;SDS011;18261;53.648;9.910;2022-10-24T11:09:24;13.52;;;3.03;;
31652;SDS011;18261;53.648;9.910;2022-10-24T11:12:02;8.00;;;2.38;;
31652;SDS011;18261;53.648;9.910;2022-10-24T11:14:30;23.02;;;2.88;;
31652;SDS011;18261;53.648;9.910;2022-10-24T11:17:00;15.88;;;2.63;;
31652;SDS011;18261;53.648;9.910;2022-10-24T11:19:31;12.82;;;2.50;;
31652;SDS011;18261;53.648;9.910;2022-10-24T11:21:59;13.60;;;2.58;;
31652;SDS011;18261;53.648;9.910;2022-10-24T11:24:27;9.63;;;2.58;;
31652;SDS011;18261;53.648;9.910;2022-10-24T11:27:01;9.00;;;2.13;;
31652;SDS011;18261;53.648;9.910;2022-10-24T11:29:35;17.60;;;2.60;;
31652;SDS011;18261;53.648;9.910;2022-10-24T11:32:20;6.90;;;2.00;;
31652;SDS011;18261;53.648;9.910;2022-10-24T11:34:57;16.15;;;2.38;;
31652;SDS011;18261;53.648;9.910;2022-10-24T11:37:31;14.73;;;2.78;;
31652;SDS011;18261;53.648;9.910;2022-10-24T11:42:33;13.77;;;2.33;;
31652;SDS011;18261;53.648;9.910;2022-10-24T11:45:11;14.27;;;3.40;;
31652;SDS011;18261;53.648;9.910;2022-10-24T11:50:11;11.57;;;2.05;;
31652;SDS011;18261;53.648;9.910;2022-10-24T11:52:43;8.25;;;2.35;;
31652;SDS011;18261;53.648;9.910;2022-10-24T11:55:19;15.50;;;1.83;;
31652;SDS011;18261;53.648;9.910;2022-10-24T11:57:47;12.32;;;2.42;;
31652;SDS011;18261;53.648;9.910;2022-10-24T12:00:22;10.13;;;2.00;;
31652;SDS011;18261;53.648;9.910;2022-10-24T12:05:37;13.95;;;2.13;;
31652;SDS011;18261;53.648;9.910;2022-10-24T12:08:15;11.52;;;2.70;;
31652;SDS011;18261;53.648;9.910;2022-10-24T12:13:43;13.48;;;1.92;;
31652;SDS011;18261;53.648;9.910;2022-10-24T12:16:20;15.98;;;2.83;;
31652;SDS011;18261;53.648;9.910;2022-10-24T12:18:50;16.08;;;2.15;;
31652;SDS011;18261;53.648;9.910;2022-10-24T12:21:18;12.55;;;2.35;;
31652;SDS011;18261;53.648;9.910;2022-10-24T12:23:54;16.85;;;2.80;;
31652;SDS011;18261;53.648;9.910;2022-10-24T12:26:25;10.70;;;2.13;;
31652;SDS011;18261;53.648;9.910;2022-10-24T12:28:55;8.70;;;1.95;;
31652;SDS011;18261;53.648;9.910;2022-10-24T12:31:31;13.20;;;2.35;;
31652;SDS011;18261;53.648;9.910;2022-10-24T12:39:28;14.25;;;1.95;;
31652;SDS011;18261;53.648;9.910;2022-10-24T12:41:54;10.90;;;1.73;;
31652;SDS011;18261;53.648;9.910;2022-10-24T12:46:59;13.35;;;2.10;;
31652;SDS011;18261;53.648;9.910;2022-10-24T12:49:27;16.67;;;2.22;;
31652;SDS011;18261;53.648;9.910;2022-10-24T12:51:54;6.82;;;1.83;;
31652;SDS011;18261;53.648;9.910;2022-10-24T12:59:31;13.02;;;2.20;;
31652;SDS011;18261;53.648;9.910;2022-10-24T13:17:36;9.68;;;2.20;;
31652;SDS011;18261;53.648;9.910;2022-10-24T13:20:05;11.18;;;1.95;;
31652;SDS011;18261;53.648;9.910;2022-10-24T13:22:39;13.18;;;2.35;;
31652;SDS011;18261;53.648;9.910;2022-10-24T13:25:19;16.27;;;2.45;;
31652;SDS011;18261;53.648;9.910;2022-10-24T13:27:45;14.57;;;2.28;;
31652;SDS011;18261;53.648;9.910;2022-10-24T13:30:31;10.55;;;2.03;;
31652;SDS011;18261;53.648;9.910;2022-10-24T13:35:42;8.73;;;2.20;;
31652;SDS011;18261;53.648;9.910;2022-10-24T13:38:08;12.27;;;2.33;;
31652;SDS011;18261;53.648;9.910;2022-10-24T13:40:34;11.15;;;3.15;;
31652;SDS011;18261;53.648;9.910;2022-10-24T13:43:13;11.68;;;2.20;;
31652;SDS011;18261;53.648;9.910;2022-10-24T13:45:43;15.77;;;2.38;;
31652;SDS011;18261;53.648;9.910;2022-10-24T13:48:13;13.15;;;2.50;;
31652;SDS011;18261;53.648;9.910;2022-10-24T13:50:48;15.38;;;2.22;;
31652;SDS011;18261;53.648;9.910;2022-10-24T13:53:17;14.38;;;2.35;;
31652;SDS011;18261;53.648;9.910;2022-10-24T13:55:45;8.90;;;2.40;;
31652;SDS011;18261;53.648;9.910;2022-10-24T13:58:19;18.70;;;3.33;;
31652;SDS011;18261;53.648;9.910;2022-10-24T14:00:48;13.45;;;2.78;;
31652;SDS011;18261;53.648;9.910;2022-10-24T14:03:18;14.32;;;2.65;;
31652;SDS011;18261;53.648;9.910;2022-10-24T14:05:50;13.10;;;2.25;;
31652;SDS011;18261;53.648;9.910;2022-10-24T14:08:49;20.60;;;2.60;;
31652;SDS011;18261;53.648;9.910;2022-10-24T14:11:15;13.50;;;2.83;;
31652;SDS011;18261;53.648;9.910;2022-10-24T14:13:43;15.43;;;2.87;;
31652;SDS011;18261;53.648;9.910;2022-10-24T14:16:10;13.65;;;2.45;;
31652;SDS011;18261;53.648;9.910;2022-10-24T14:18:36;12.55;;;2.25;;
31652;SDS011;18261;53.648;9.910;2022-10-24T14:21:03;12.73;;;1.90;;
31652;SDS011;18261;53.648;9.910;2022-10-24T14:23:30;9.48;;;2.03;;
31652;SDS011;18261;53.648;9.910;2022-10-24T14:26:00;13.52;;;3.00;;
31652;SDS011;18261;53.648;9.910;2022-10-24T14:28:28;14.68;;;2.60;;
31652;SDS011;18261;53.648;9.910;2022-10-24T14:30:55;11.77;;;2.00;;
31652;SDS011;18261;53.648;9.910;2022-10-24T14:33:22;12.02;;;2.10;;
31652;SDS011;18261;53.648;9.910;2022-10-24T14:35:49;12.05;;;2.10;;
31652;SDS011;18261;53.648;9.910;2022-10-24T14:38:15;12.85;;;2.53;;
31652;SDS011;18261;53.648;9.910;2022-10-24T14:40:43;18.58;;;2.35;;
31652;SDS011;18261;53.648;9.910;2022-10-24T14:43:11;12.70;;;2.58;;
31652;SDS011;18261;53.648;9.910;2022-10-24T14:45:38;9.07;;;2.10;;
31652;SDS011;18261;53.648;9.910;2022-10-24T14:48:12;12.65;;;2.30;;
31652;SDS011;18261;53.648;9.910;2022-10-24T14:50:41;11.73;;;2.13;;
31652;SDS011;18261;53.648;9.910;2022-10-24T14:53:22;13.15;;;2.00;;
31652;SDS011;18261;53.648;9.910;2022-10-24T14:55:51;12.65;;;1.83;;
31652;SDS011;18261;53.648;9.910;2022-10-24T14:58:25;14.55;;;2.53;;
31652;SDS011;18261;53.648;9.910;2022-10-24T15:00:52;12.93;;;2.17;;
31652;SDS011;18261;53.648;9.910;2022-10-24T15:03:18;12.93;;;2.05;;
31652;SDS011;18261;53.648;9.910;2022-10-24T15:08:36;12.60;;;1.80;;
31652;SDS011;18261;53.648;9.910;2022-10-24T15:11:16;16.15;;;2.28;;
31652;SDS011;18261;53.648;9.910;2022-10-24T15:13:46;13.10;;;2.45;;
31652;SDS011;18261;53.648;9.910;2022-10-24T15:16:20;10.30;;;2.17;;
31652;SDS011;18261;53.648;9.910;2022-10-24T15:18:47;7.97;;;2.00;;
31652;SDS011;18261;53.648;9.910;2022-10-24T15:21:18;13.45;;;2.20;;
31652;SDS011;18261;53.648;9.910;2022-10-24T15:23:48;14.10;;;2.63;;
31652;SDS011;18261;53.648;9.910;2022-10-24T15:26:17;12.50;;;2.65;;
31652;SDS011;18261;53.648;9.910;2022-10-24T15:28:48;12.32;;;2.60;;
31652;SDS011;18261;53.648;9.910;2022-10-24T15:31:16;11.40;;;2.22;;
31652;SDS011;18261;53.648;9.910;2022-10-24T15:33:42;15.88;;;2.53;;
31652;SDS011;18261;53.648;9.910;2022-10-24T15:36:22;18.70;;;3.75;;
31652;SDS011;18261;53.648;9.910;2022-10-24T15:38:55;16.27;;;2.92;;
31652;SDS011;18261;53.648;9.910;2022-10-24T15:41:22;19.02;;;2.63;;
31652;SDS011;18261;53.648;9.910;2022-10-24T15:43:48;15.13;;;2.20;;
31652;SDS011;18261;53.648;9.910;2022-10-24T15:46:14;21.77;;;2.45;;
31652;SDS011;18261;53.648;9.910;2022-10-24T15:48:40;18.95;;;3.28;;
31652;SDS011;18261;53.648;9.910;2022-10-24T15:51:06;17.58;;;2.80;;
31652;SDS011;18261;53.648;9.910;2022-10-24T15:53:32;12.00;;;2.80;;
31652;SDS011;18261;53.648;9.910;2022-10-24T15:55:58;15.20;;;2.30;;
31652;SDS011;18261;53.648;9.910;2022-10-24T15:58:24;19.42;;;2.40;;
31652;SDS011;18261;53.648;9.910;2022-10-24T16:00:52;17.92;;;2.80;;
31652;SDS011;18261;53.648;9.910;2022-10-24T16:03:19;12.45;;;2.63;;
31652;SDS011;18261;53.648;9.910;2022-10-24T16:05:47;15.93;;;2.83;;
31652;SDS011;18261;53.648;9.910;2022-10-24T16:08:15;20.67;;;2.85;;
31652;SDS011;18261;53.648;9.910;2022-10-24T16:10:43;14.32;;;3.20;;
31652;SDS011;18261;53.648;9.910;2022-10-24T16:13:13;22.60;;;2.10;;
31652;SDS011;18261;53.648;9.910;2022-10-24T16:15:39;12.18;;;2.20;;
31652;SDS011;18261;53.648;9.910;2022-10-24T16:18:06;21.35;;;2.72;;
31652;SDS011;18261;53.648;9.910;2022-10-24T16:20:32;23.80;;;3.20;;